Terminal Aerodrome Forecast
Issued by NWS

Home | Current Version | Previous Version | Text Only | Print | Product List | Glossary On
Versions: 1 2 3 4 5 6 7 8 9 10 11 12 13 14 15 16 17 18 19 20 21 22
606
FTUS46 KMFR 170739 AAA
TAFRBG
TAF AMD
KRBG 170739Z 1708/1806 00000KT 1/2SM FG OVC001
     FM171500 VRB03KT 3SM BR BKN005 BKN060 OVC100
     FM171600 17003KT P6SM SCT050 OVC080
     FM171900 17004KT P6SM -RA SCT035 OVC060
     FM180000 17008KT 5SM RA BR OVC035=

USA.gov is the U.S. government's official web portal to all federal, state and local government web resources and services.